Time;durP1;ratioP1;P1;durP2;ratioP2;P2;SDS_P1;SDS_P2;PMS_P1;PMS_P2;Temp;Humidity;BMP_temperature;BMP_pressure;BME280_temperature;BME280_humidity;BME280_pressure;Samples;Min_cycle;Max_cycle;Signal;HPM_P1;HPM_P2
2022/06/02 00:02:00;;;;;;;;;16.50;14.00;;;;;20.69;63.50;99148.75;5071280;28;45437;-64
2022/06/02 00:04:37;;;;;;;;;13.75;13.75;;;;;20.68;63.88;99150.56;5071919;28;46339;-63
2022/06/02 00:07:03;;;;;;;;;12.60;12.60;;;;;20.68;63.22;99163.97;5061902;28;45414;-63
2022/06/02 00:09:34;;;;;;;;;14.00;13.00;;;;;20.61;63.34;99157.38;5064195;28;45576;-63
2022/06/02 00:12:10;;;;;;;;;14.75;13.75;;;;;20.54;64.30;99158.88;5075755;28;45424;-63
2022/06/02 00:15:09;;;;;;;;;14.00;14.00;;;;;20.43;64.17;99159.75;5071190;28;46536;-63
2022/06/02 00:17:46;;;;;;;;;15.25;15.25;;;;;20.34;65.71;99154.22;5033941;28;45557;-63
2022/06/02 00:20:20;;;;;;;;;17.50;16.00;;;;;20.23;65.01;99143.50;5071899;28;45461;-63
2022/06/02 00:23:16;;;;;;;;;18.00;14.50;;;;;20.16;65.21;99148.50;5070603;28;45496;-64
2022/06/02 00:26:28;;;;;;;;;11.00;9.50;;;;;20.13;65.28;99154.94;5067243;28;45512;-63
2022/06/02 00:28:59;;;;;;;;;15.60;15.60;;;;;20.12;65.41;99155.06;5055832;28;45399;-63
2022/06/02 00:31:51;;;;;;;;;16.00;15.50;;;;;20.13;64.90;99154.09;5061961;28;45416;-63
2022/06/02 00:34:25;;;;;;;;;15.75;15.75;;;;;20.13;65.49;99157.63;5070846;28;45414;-64
2022/06/02 00:37:04;;;;;;;;;14.75;14.00;;;;;20.14;65.30;99161.13;5067501;28;45528;-63
2022/06/02 00:39:32;;;;;;;;;13.00;13.00;;;;;20.15;65.61;99173.56;5061821;28;45559;-63
2022/06/02 00:42:24;;;;;;;;;12.50;12.50;;;;;20.16;65.51;99178.78;5050605;28;45473;-64
2022/06/02 00:44:50;;;;;;;;;16.00;15.50;;;;;20.16;65.73;99177.94;5067959;28;45382;-63
2022/06/02 00:47:45;;;;;;;;;16.00;15.25;;;;;20.12;65.90;99174.63;5067564;28;46252;-64
2022/06/02 00:50:23;;;;;;;;;13.75;12.75;;;;;20.09;66.42;99174.91;5030124;28;45546;-64
2022/06/02 00:53:07;;;;;;;;;12.50;12.50;;;;;20.09;66.11;99174.91;5071595;28;45430;-64
2022/06/02 00:58:53;;;;;;;;;10.00;10.00;;;;;20.06;66.45;99168.94;5073622;28;45368;-64
2022/06/02 01:01:31;;;;;;;;;13.25;12.25;;;;;20.03;66.86;99170.03;5070005;28;45428;-64
2022/06/02 01:03:59;;;;;;;;;18.25;14.00;;;;;20.04;67.33;99176.22;5064385;28;45484;-63
2022/06/02 01:06:24;;;;;;;;;17.75;13.75;;;;;20.03;66.99;99175.38;5072792;28;45439;-63
2022/06/02 01:09:15;;;;;;;;;16.25;15.75;;;;;20.01;67.43;99174.63;5065775;28;45362;-64
2022/06/02 01:12:07;;;;;;;;;15.50;14.75;;;;;20.01;67.67;99181.81;5032810;28;45396;-63
2022/06/02 01:14:48;;;;;;;;;15.00;15.00;;;;;19.98;67.68;99172.19;5070662;28;45357;-63
2022/06/02 01:17:26;;;;;;;;;13.00;13.00;;;;;19.97;67.76;99172.31;5066233;28;45469;-63
2022/06/02 01:20:15;;;;;;;;;14.25;14.25;;;;;19.95;67.91;99161.72;5065782;28;45556;-63
2022/06/02 01:22:55;;;;;;;;;17.75;17.25;;;;;19.91;67.82;99168.31;5071724;28;45313;-63
2022/06/02 01:25:41;;;;;;;;;16.50;16.00;;;;;19.87;68.21;99169.50;5066408;28;45397;-63
2022/06/02 01:28:22;;;;;;;;;16.00;13.50;;;;;19.86;68.36;99170.47;5062674;28;45389;-64
2022/06/02 01:31:07;;;;;;;;;17.75;15.50;;;;;19.84;68.14;99169.75;5071651;28;45689;-64
2022/06/02 01:33:35;;;;;;;;;17.00;15.50;;;;;19.81;68.64;99156.59;5071858;28;45378;-63
2022/06/02 01:36:12;;;;;;;;;15.25;14.25;;;;;19.79;68.53;99159.38;5063287;28;45467;-63
2022/06/02 01:38:47;;;;;;;;;14.25;13.75;;;;;19.78;68.74;99146.13;5064410;28;45436;-63
2022/06/02 01:41:30;;;;;;;;;20.00;17.75;;;;;19.77;68.50;99145.28;5063807;28;46224;-63
2022/06/02 01:44:13;;;;;;;;;18.50;16.50;;;;;19.74;68.75;99144.69;5062587;28;45576;-63
2022/06/02 01:46:46;;;;;;;;;17.50;16.25;;;;;19.70;68.71;99133.38;5050469;28;45468;-63
2022/06/02 01:49:32;;;;;;;;;14.75;14.00;;;;;19.67;68.60;99130.91;5062935;28;45434;-63
2022/06/02 01:52:10;;;;;;;;;15.75;15.00;;;;;19.64;69.02;99120.44;5055865;28;48124;-63
2022/06/02 01:55:03;;;;;;;;;17.00;13.50;;;;;19.63;68.90;99120.56;5067829;28;45364;-63
2022/06/02 01:57:50;;;;;;;;;15.00;14.50;;;;;19.61;69.00;99114.47;5067580;28;45571;-63
2022/06/02 02:00:22;;;;;;;;;18.50;15.25;;;;;19.60;69.52;99115.47;5066790;28;45516;-63
2022/06/02 02:03:06;;;;;;;;;18.25;18.00;;;;;19.58;69.07;99114.75;5068456;28;45387;-63
2022/06/02 02:05:58;;;;;;;;;13.50;13.50;;;;;19.57;69.42;99113.03;5057506;28;46287;-64
2022/06/02 02:08:55;;;;;;;;;15.00;13.50;;;;;19.57;68.99;99110.38;5061468;28;45479;-63
2022/06/02 02:11:42;;;;;;;;;13.75;13.00;;;;;19.55;69.57;99113.16;5043577;28;45584;-63
2022/06/02 02:14:38;;;;;;;;;15.75;14.75;;;;;19.51;69.12;99112.53;5074103;28;46688;-63
2022/06/02 02:17:46;;;;;;;;;21.25;21.25;;;;;19.49;68.51;99119.81;5068365;28;45386;-63
2022/06/02 02:20:21;;;;;;;;;27.75;26.25;;;;;19.48;68.90;99117.22;5060733;28;45333;-64
2022/06/02 02:23:12;;;;;;;;;24.75;23.00;;;;;19.48;69.28;99112.72;5067588;28;45464;-63
2022/06/02 02:25:53;;;;;;;;;20.00;20.00;;;;;19.49;69.35;99121.59;5021229;28;45547;-63
2022/06/02 02:28:27;;;;;;;;;22.50;20.75;;;;;19.47;69.80;99120.84;5059075;28;45386;-64
2022/06/02 02:31:26;;;;;;;;;20.25;19.50;;;;;19.46;69.98;99121.81;5061965;28;45584;-63
2022/06/02 02:34:28;;;;;;;;;25.50;23.25;;;;;19.46;70.19;99117.34;5062048;28;45347;-63
2022/06/02 02:37:09;;;;;;;;;22.00;21.00;;;;;19.47;70.10;99121.72;5048426;28;45410;-63
2022/06/02 02:40:04;;;;;;;;;17.75;16.50;;;;;19.50;69.77;99118.00;5067121;28;45464;-63
2022/06/02 02:43:08;;;;;;;;;15.50;15.25;;;;;19.50;69.90;99123.34;5069573;28;45389;-63
2022/06/02 02:45:33;;;;;;;;;17.00;16.50;;;;;19.51;69.27;99131.25;4984910;28;45548;-63
2022/06/02 02:48:42;;;;;;;;;16.25;13.75;;;;;19.54;69.26;99135.50;4992413;28;45865;-63
2022/06/02 02:51:13;;;;;;;;;12.75;12.75;;;;;19.57;69.22;99134.44;4953885;28;46068;-63
2022/06/02 02:54:07;;;;;;;;;15.25;13.25;;;;;19.58;69.49;99142.34;5030448;28;45372;-64
2022/06/02 02:56:45;;;;;;;;;16.75;15.75;;;;;19.59;70.10;99136.03;5053197;28;45446;-63
2022/06/02 02:59:19;;;;;;;;;18.25;15.25;;;;;19.61;69.86;99143.91;5057871;28;46377;-63
2022/06/02 03:02:03;;;;;;;;;16.00;15.75;;;;;19.62;69.67;99146.47;5071104;28;45472;-63
2022/06/02 03:04:46;;;;;;;;;15.25;12.75;;;;;19.61;68.76;99142.06;5065190;28;45514;-63
2022/06/02 03:07:12;;;;;;;;;18.50;17.25;;;;;19.63;68.57;99141.97;5066164;28;45377;-63
2022/06/02 03:09:43;;;;;;;;;14.75;14.25;;;;;19.64;68.89;99132.97;5075544;28;46095;-63
2022/06/02 03:12:19;;;;;;;;;13.75;13.00;;;;;19.64;68.12;99123.13;5067843;28;45498;-63
2022/06/02 03:15:19;;;;;;;;;15.50;14.50;;;;;19.68;68.42;99118.41;5073567;28;45429;-63
2022/06/02 03:18:24;;;;;;;;;18.00;13.50;;;;;19.72;67.45;99130.56;5072974;28;45344;-63
2022/06/02 03:21:14;;;;;;;;;18.25;16.00;;;;;19.68;68.01;99127.28;5049066;28;46234;-64
2022/06/02 03:23:56;;;;;;;;;15.00;14.00;;;;;19.67;67.39;99130.91;5067570;28;45476;-63
2022/06/02 03:26:31;;;;;;;;;14.00;14.00;;;;;19.62;67.06;99127.75;5067612;28;45405;-63
2022/06/02 03:29:37;;;;;;;;;16.75;14.50;;;;;19.60;67.38;99142.22;5062128;28;45690;-64
2022/06/02 03:32:12;;;;;;;;;15.75;14.25;;;;;19.60;67.75;99147.56;5032487;28;46387;-63
2022/06/02 03:34:53;;;;;;;;;15.25;14.50;;;;;19.57;67.97;99162.03;5074546;28;45499;-63
2022/06/02 03:37:33;;;;;;;;;16.75;15.00;;;;;19.40;67.89;99149.06;5074726;28;45410;-64
2022/06/02 03:40:17;;;;;;;;;14.25;13.75;;;;;19.26;69.39;99143.91;5069343;28;45571;-63
2022/06/02 03:42:45;;;;;;;;;15.25;14.75;;;;;19.15;70.02;99166.91;5065573;28;45477;-63
2022/06/02 03:45:19;;;;;;;;;18.50;17.00;;;;;19.13;69.38;99179.53;5074801;28;45430;-63
2022/06/02 03:48:28;;;;;;;;;16.75;15.50;;;;;19.14;69.85;99181.25;5069581;28;45401;-63
2022/06/02 03:51:26;;;;;;;;;16.25;14.50;;;;;19.16;69.73;99187.34;5068997;28;45480;-63
2022/06/02 03:54:00;;;;;;;;;14.25;13.25;;;;;19.15;69.92;99188.31;5072085;28;45622;-63
2022/06/02 03:56:49;;;;;;;;;16.00;15.50;;;;;19.16;70.40;99183.81;5072586;28;45475;-63
2022/06/02 03:59:29;;;;;;;;;16.50;16.25;;;;;19.13;70.00;99173.34;5067116;28;45435;-63
2022/06/02 04:02:01;;;;;;;;;15.25;14.50;;;;;19.11;70.22;99194.84;5068551;28;45334;-63
2022/06/02 04:04:47;;;;;;;;;15.50;15.50;;;;;19.09;70.49;99223.53;5075118;28;45470;-63
2022/06/02 04:07:37;;;;;;;;;13.25;13.25;;;;;19.05;71.81;99226.53;5064251;28;45511;-63
2022/06/02 04:10:27;;;;;;;;;19.25;17.50;;;;;19.02;71.81;99230.25;5072376;28;45414;-63
2022/06/02 04:16:22;;;;;;;;;19.50;16.75;;;;;19.07;72.46;99252.16;5065426;28;45441;-64
2022/06/02 04:22:36;;;;;;;;;18.75;16.50;;;;;19.16;72.61;99245.28;5067847;28;45367;-64
2022/06/02 04:25:25;;;;;;;;;15.00;14.75;;;;;19.21;72.71;99243.13;5062769;28;45413;-63
2022/06/02 04:28:09;;;;;;;;;17.75;17.00;;;;;19.25;72.63;99255.31;5069103;28;45433;-63
2022/06/02 04:30:57;;;;;;;;;16.00;15.75;;;;;19.28;72.53;99255.06;5061602;28;45447;-64
2022/06/02 04:33:36;;;;;;;;;16.50;16.50;;;;;19.32;72.58;99259.22;5073456;28;45495;-63
2022/06/02 04:36:26;;;;;;;;;15.00;14.50;;;;;19.35;72.87;99245.63;5072357;28;45385;-63
2022/06/02 04:39:01;;;;;;;;;21.25;18.00;;;;;19.39;72.81;99240.94;5074468;28;45479;-64
2022/06/02 04:41:58;;;;;;;;;15.00;13.50;;;;;19.42;73.03;99238.88;5074546;28;45412;-63
2022/06/02 04:45:08;;;;;;;;;17.50;15.00;;;;;19.45;73.16;99241.31;5057353;28;45526;-64
2022/06/02 04:48:12;;;;;;;;;14.50;14.50;;;;;19.49;72.64;99244.59;4994215;28;45457;-63
2022/06/02 04:50:49;;;;;;;;;20.00;19.00;;;;;19.54;73.16;99249.66;4974058;28;46499;-63
2022/06/02 04:53:36;;;;;;;;;18.25;17.00;;;;;19.58;72.79;99248.47;5066569;28;45373;-63
2022/06/02 04:56:21;;;;;;;;;16.00;16.00;;;;;19.58;73.04;99254.66;5070837;28;45801;-63
2022/06/02 04:58:59;;;;;;;;;16.50;15.50;;;;;19.58;72.95;99270.72;5075809;28;45441;-63
2022/06/02 05:01:36;;;;;;;;;16.00;14.75;;;;;19.58;72.97;99283.22;5049572;28;47324;-63
2022/06/02 05:04:15;;;;;;;;;15.50;14.75;;;;;19.49;72.54;99272.25;5073920;28;45437;-63
2022/06/02 05:06:50;;;;;;;;;15.00;13.00;;;;;19.43;72.48;99251.28;5074011;28;45290;-63
2022/06/02 05:09:31;;;;;;;;;15.75;15.75;;;;;19.41;73.59;99244.34;5063421;28;45481;-64
2022/06/02 05:12:29;;;;;;;;;20.00;17.00;;;;;19.43;73.16;99240.59;5055672;28;45427;-63
2022/06/02 05:15:15;;;;;;;;;15.00;14.40;;;;;19.46;73.25;99287.63;5068598;28;45397;-63
2022/06/02 05:18:06;;;;;;;;;18.00;17.75;;;;;19.46;73.25;99343.78;5068044;28;45540;-63
2022/06/02 05:20:49;;;;;;;;;15.50;14.00;;;;;19.40;72.95;99373.66;5067624;28;45523;-64
2022/06/02 05:23:15;;;;;;;;;18.75;15.25;;;;;19.38;72.76;99356.84;5074985;28;45527;-63
2022/06/02 05:26:02;;;;;;;;;15.50;15.50;;;;;19.38;72.96;99328.31;5048499;28;45562;-64
2022/06/02 05:29:05;;;;;;;;;14.00;13.75;;;;;19.39;73.38;99327.34;5062923;28;45330;-64
2022/06/02 05:32:00;;;;;;;;;16.25;14.75;;;;;19.40;74.25;99321.03;5009667;28;45465;-64
2022/06/02 05:34:40;;;;;;;;;15.50;15.00;;;;;19.36;75.41;99346.28;5071049;28;45579;-63
2022/06/02 05:37:44;;;;;;;;;20.00;19.00;;;;;19.33;76.66;99386.59;5069330;28;45467;-64
2022/06/02 05:40:22;;;;;;;;;16.25;16.25;;;;;19.31;76.39;99404.56;5038856;28;45456;-64
2022/06/02 05:43:21;;;;;;;;;19.50;17.25;;;;;19.22;76.77;99373.16;5062303;28;45540;-64
2022/06/02 05:46:10;;;;;;;;;18.25;18.25;;;;;19.15;78.26;99337.13;5069565;28;46444;-64
2022/06/02 05:48:35;;;;;;;;;16.75;14.50;;;;;19.12;79.09;99326.66;5069163;28;45300;-64
2022/06/02 05:51:08;;;;;;;;;19.00;16.50;;;;;19.11;79.42;99319.59;5070164;28;45385;-64
2022/06/02 05:53:45;;;;;;;;;16.75;16.25;;;;;19.09;79.24;99318.88;5069275;28;45447;-64
2022/06/02 05:56:17;;;;;;;;;15.75;15.75;;;;;19.08;79.67;99315.34;5053584;27;46265;-64
2022/06/02 05:59:35;;;;;;;;;19.75;17.25;;;;;19.08;79.60;99298.44;5066195;28;45367;-64
2022/06/02 06:02:09;;;;;;;;;19.75;19.50;;;;;19.10;79.44;99289.34;5057377;28;45393;-64
2022/06/02 06:04:44;;;;;;;;;18.25;17.00;;;;;19.10;80.64;99280.50;5071070;28;45428;-64
2022/06/02 06:07:30;;;;;;;;;20.75;20.75;;;;;19.17;80.53;99292.44;5067412;28;45716;-64
2022/06/02 06:10:15;;;;;;;;;18.25;18.25;;;;;19.25;80.48;99307.94;5069407;28;45506;-64
2022/06/02 06:12:46;;;;;;;;;20.00;18.00;;;;;19.34;80.48;99305.41;5061935;28;45413;-64
2022/06/02 06:15:34;;;;;;;;;22.25;19.75;;;;;19.43;80.11;99309.25;5059805;27;45427;-64
2022/06/02 06:18:09;;;;;;;;;17.50;17.50;;;;;19.54;80.57;99303.13;5068628;28;46429;-63
2022/06/02 06:20:56;;;;;;;;;18.25;16.75;;;;;19.67;79.82;99296.75;5069909;28;45381;-63
2022/06/02 06:23:55;;;;;;;;;22.00;20.50;;;;;19.81;78.49;99283.19;5052176;28;45536;-63
2022/06/02 06:26:20;;;;;;;;;14.50;13.50;;;;;19.92;77.84;99278.88;5067283;28;45398;-63
2022/06/02 06:29:12;;;;;;;;;18.75;16.75;;;;;20.03;78.20;99278.91;5070988;28;46137;-63
2022/06/02 06:31:56;;;;;;;;;21.25;20.50;;;;;20.17;77.07;99273.34;5061974;28;45392;-64
2022/06/02 06:34:34;;;;;;;;;21.50;21.25;;;;;20.29;76.69;99261.69;5050508;28;45464;-63
2022/06/02 06:37:11;;;;;;;;;12.75;11.25;;;;;20.38;76.13;99258.31;5054864;28;45513;-63
2022/06/02 06:39:40;;;;;;;;;15.00;14.25;;;;;20.48;76.02;99251.25;5052816;28;46673;-63
2022/06/02 06:42:29;;;;;;;;;18.50;16.25;;;;;20.66;75.68;99253.47;5071417;28;45564;-63
2022/06/02 06:45:20;;;;;;;;;16.50;16.00;;;;;20.81;75.70;99255.78;5065519;28;45572;-64
2022/06/02 06:47:53;;;;;;;;;17.00;14.25;;;;;20.98;74.62;99258.94;5061821;28;45512;-65
2022/06/02 06:50:29;;;;;;;;;17.00;16.25;;;;;21.06;74.51;99259.19;5064675;28;45550;-64
2022/06/02 06:53:04;;;;;;;;;20.75;19.00;;;;;21.13;74.31;99260.38;5063227;28;45361;-65
2022/06/02 06:55:41;;;;;;;;;13.75;10.00;;;;;21.24;74.18;99265.75;5072933;28;45350;-65
2022/06/02 06:58:06;;;;;;;;;20.00;17.75;;;;;21.35;73.06;99268.41;5070403;28;45390;-65
2022/06/02 07:00:40;;;;;;;;;18.00;17.00;;;;;21.41;72.94;99264.38;5073154;28;45425;-65
2022/06/02 07:03:11;;;;;;;;;14.50;14.00;;;;;21.43;72.45;99262.44;5073453;28;45504;-65
2022/06/02 07:05:51;;;;;;;;;17.75;14.50;;;;;21.51;72.18;99263.47;5068418;28;45484;-65
2022/06/02 07:08:20;;;;;;;;;13.75;13.00;;;;;21.63;71.99;99260.75;5069625;28;45452;-65
2022/06/02 07:10:55;;;;;;;;;18.00;16.00;;;;;21.75;71.66;99243.63;5073261;28;45506;-65
2022/06/02 07:13:49;;;;;;;;;15.25;15.25;;;;;21.84;71.30;99242.84;5058598;28;45484;-65
2022/06/02 07:16:27;;;;;;;;;15.25;14.75;;;;;21.90;70.76;99236.97;5066005;28;45523;-66
2022/06/02 07:19:07;;;;;;;;;17.00;14.50;;;;;22.00;71.11;99231.69;5057758;28;45415;-65
2022/06/02 07:21:53;;;;;;;;;15.75;15.25;;;;;22.12;70.45;99244.09;5046222;28;47827;-65
2022/06/02 07:24:43;;;;;;;;;18.00;17.60;;;;;22.24;69.86;99260.00;5065828;28;45598;-65
2022/06/02 07:27:26;;;;;;;;;56.00;44.67;;;;;22.33;69.98;99265.56;5067049;28;45449;-65
2022/06/02 07:30:24;;;;;;;;;17.00;17.00;;;;;22.42;69.42;99254.88;5066397;28;45397;-65
2022/06/02 07:33:28;;;;;;;;;18.25;15.75;;;;;22.53;69.48;99235.97;5069798;28;46276;-65
2022/06/02 07:36:12;;;;;;;;;16.50;16.50;;;;;22.59;69.08;99243.50;5033873;28;45371;-65
2022/06/02 07:38:59;;;;;;;;;14.50;14.50;;;;;22.67;68.12;99256.25;5070272;28;45489;-65
2022/06/02 07:41:40;;;;;;;;;15.50;15.50;;;;;22.72;67.84;99247.81;5074689;28;45465;-65
2022/06/02 07:44:11;;;;;;;;;18.00;17.00;;;;;22.73;67.34;99242.28;5070471;28;45739;-66
2022/06/02 07:46:41;;;;;;;;;14.40;12.60;;;;;22.71;67.24;99235.34;5068857;28;45334;-66
2022/06/02 07:49:28;;;;;;;;;18.50;18.00;;;;;22.70;67.11;99239.00;5063222;28;45358;-65
2022/06/02 07:51:56;;;;;;;;;17.75;16.75;;;;;22.72;67.45;99231.66;5072390;28;45467;-65
2022/06/02 07:54:40;;;;;;;;;14.50;13.00;;;;;22.74;66.57;99227.88;5056175;28;46509;-65
2022/06/02 07:57:18;;;;;;;;;15.75;14.00;;;;;22.79;67.02;99231.00;5070508;28;45556;-65
2022/06/02 08:00:13;;;;;;;;;14.25;14.25;;;;;22.81;66.29;99229.03;5073556;28;45432;-65
2022/06/02 08:03:16;;;;;;;;;12.00;12.00;;;;;22.83;66.12;99234.28;5058085;28;45420;-65
2022/06/02 08:06:02;;;;;;;;;15.00;15.00;;;;;22.89;66.07;99225.69;5067652;28;45338;-65
2022/06/02 08:08:43;;;;;;;;;12.00;12.00;;;;;22.95;65.54;99236.75;5072750;28;45437;-65
2022/06/02 08:11:09;;;;;;;;;15.75;14.25;;;;;23.07;65.09;99244.69;5069449;28;45469;-65
2022/06/02 08:13:49;;;;;;;;;15.00;15.00;;;;;23.18;64.35;99249.97;5076301;28;45384;-65
2022/06/02 08:16:45;;;;;;;;;17.75;15.00;;;;;23.25;64.18;99253.81;5068139;28;46154;-65
2022/06/02 08:19:25;;;;;;;;;15.60;14.20;;;;;23.27;63.87;99268.84;5058057;28;45377;-65
2022/06/02 08:21:57;;;;;;;;;13.50;11.00;;;;;23.25;63.62;99286.94;5066060;28;45449;-65
2022/06/02 08:24:58;;;;;;;;;14.25;12.75;;;;;23.17;64.00;99291.28;5062550;28;45396;-65
2022/06/02 08:27:48;;;;;;;;;12.00;12.00;;;;;23.08;63.89;99305.56;5060936;28;46102;-65
2022/06/02 08:30:17;;;;;;;;;18.00;15.00;;;;;22.99;64.23;99317.97;5054660;28;45753;-65
2022/06/02 08:33:13;;;;;;;;;13.25;13.25;;;;;22.94;62.28;99318.41;5076212;28;45542;-65
2022/06/02 08:35:53;;;;;;;;;13.00;13.00;;;;;22.85;62.54;99321.03;5067111;28;45440;-65
2022/06/02 08:38:33;;;;;;;;;12.75;12.00;;;;;22.78;62.67;99327.94;5062450;28;45416;-64
2022/06/02 08:41:01;;;;;;;;;14.00;14.00;;;;;22.76;63.59;99324.50;5063131;28;45492;-65
2022/06/02 08:43:59;;;;;;;;;14.50;13.25;;;;;22.80;63.73;99336.72;5061526;28;45487;-64
2022/06/02 08:47:00;;;;;;;;;9.25;8.50;;;;;22.86;63.54;99361.22;5070649;28;45611;-65
2022/06/02 08:49:56;;;;;;;;;13.00;13.00;;;;;22.92;62.79;99362.53;5069941;28;46266;-65
2022/06/02 08:52:40;;;;;;;;;14.60;14.00;;;;;22.89;63.17;99354.75;5061613;28;45496;-65
2022/06/02 08:55:24;;;;;;;;;13.50;13.50;;;;;22.90;62.97;99337.63;5054825;28;45305;-65
2022/06/02 08:58:07;;;;;;;;;14.00;13.75;;;;;23.03;63.17;99329.31;5062598;28;45620;-65
2022/06/02 09:01:07;;;;;;;;;17.25;14.50;;;;;23.21;62.85;99327.69;5064823;28;45437;-65
2022/06/02 09:04:01;;;;;;;;;16.00;12.00;;;;;23.39;62.85;99327.91;5052869;28;45978;-65
2022/06/02 09:06:42;;;;;;;;;13.25;13.25;;;;;23.53;63.23;99325.69;5069518;28;45452;-65
2022/06/02 09:09:29;;;;;;;;;14.00;14.00;;;;;23.68;62.59;99331.53;5073807;28;45373;-65
2022/06/02 09:12:33;;;;;;;;;13.50;12.50;;;;;23.83;62.62;99335.50;5057840;28;45408;-64
2022/06/02 09:15:17;;;;;;;;;12.60;11.00;;;;;24.00;62.32;99324.03;5035826;28;45423;-65
2022/06/02 09:17:56;;;;;;;;;16.00;12.50;;;;;24.16;61.51;99328.84;5060483;28;45565;-64
2022/06/02 09:20:40;;;;;;;;;15.25;13.50;;;;;24.27;60.86;99319.84;5058063;28;45682;-64
2022/06/02 09:23:28;;;;;;;;;13.50;11.75;;;;;24.31;60.68;99315.84;5065731;28;45524;-64
2022/06/02 09:26:31;;;;;;;;;14.40;12.80;;;;;24.34;60.29;99318.25;5067561;28;45448;-64
2022/06/02 09:29:34;;;;;;;;;10.00;10.00;;;;;24.30;59.13;99322.22;5063363;28;45409;-64
2022/06/02 09:32:21;;;;;;;;;11.00;9.75;;;;;24.30;58.74;99317.69;5067251;28;45674;-65
2022/06/02 09:34:53;;;;;;;;;12.75;12.75;;;;;24.32;58.89;99314.84;5065758;28;45445;-65
2022/06/02 09:37:24;;;;;;;;;11.20;10.20;;;;;24.44;58.98;99316.41;5058543;28;45381;-65
2022/06/02 09:40:14;;;;;;;;;11.00;11.00;;;;;24.61;58.33;99312.13;5071349;28;45389;-65
2022/06/02 09:42:45;;;;;;;;;9.25;9.25;;;;;24.81;57.60;99312.88;5064343;28;45686;-64
2022/06/02 09:45:30;;;;;;;;;12.00;10.75;;;;;24.98;56.46;99304.91;5070121;28;46278;-64
2022/06/02 09:47:56;;;;;;;;;11.40;11.40;;;;;25.13;56.23;99310.69;5061462;28;45349;-65
2022/06/02 09:50:59;;;;;;;;;15.00;11.75;;;;;25.31;55.82;99299.91;5063676;28;45420;-64
2022/06/02 09:54:01;;;;;;;;;12.00;12.00;;;;;25.50;55.09;99290.84;5058370;28;45172;-64
2022/06/02 09:56:32;;;;;;;;;10.60;10.60;;;;;25.63;54.28;99286.00;5058027;28;46494;-64
2022/06/02 09:59:38;;;;;;;;;11.80;11.40;;;;;25.78;54.17;99287.16;5059549;28;45349;-64
2022/06/02 10:02:36;;;;;;;;;17.00;15.50;;;;;25.94;53.83;99276.50;5012393;28;45470;-64
2022/06/02 10:05:28;;;;;;;;;16.75;16.00;;;;;26.06;53.26;99272.53;5062877;28;45452;-64
2022/06/02 10:08:06;;;;;;;;;15.25;14.50;;;;;26.20;53.07;99278.38;5062876;28;45424;-64
2022/06/02 10:10:40;;;;;;;;;13.20;13.20;;;;;26.36;53.37;99279.38;5070217;28;45398;-64
2022/06/02 10:13:11;;;;;;;;;10.80;10.80;;;;;26.44;53.05;99270.50;5067359;28;45460;-64
2022/06/02 10:16:03;;;;;;;;;14.00;13.75;;;;;26.50;53.28;99264.44;5067191;28;45344;-64
2022/06/02 10:18:45;;;;;;;;;13.50;12.00;;;;;26.56;53.09;99269.22;5060958;28;45522;-64
2022/06/02 10:21:29;;;;;;;;;13.00;13.00;;;;;26.62;53.00;99268.59;5062537;28;45425;-66
2022/06/02 10:24:10;;;;;;;;;10.00;10.00;;;;;26.68;52.65;99258.97;5054512;28;45511;-64
2022/06/02 10:26:47;;;;;;;;;13.00;11.75;;;;;26.68;52.58;99245.44;5063006;28;45475;-64
2022/06/02 10:29:31;;;;;;;;;10.80;9.60;;;;;26.76;52.04;99243.66;5067791;28;45670;-65
2022/06/02 10:32:34;;;;;;;;;11.00;10.20;;;;;26.83;52.14;99249.25;5052306;28;45526;-64
2022/06/02 10:35:18;;;;;;;;;11.80;11.20;;;;;26.91;52.69;99243.88;5071872;28;45389;-65
2022/06/02 10:38:06;;;;;;;;;10.50;10.25;;;;;26.96;51.81;99246.13;5063240;28;45155;-64
2022/06/02 10:41:00;;;;;;;;;13.80;12.20;;;;;26.98;51.98;99239.53;5051847;28;45586;-65
2022/06/02 10:44:03;;;;;;;;;13.80;10.40;;;;;27.00;51.17;99232.09;5071759;28;45526;-64
2022/06/02 10:46:38;;;;;;;;;12.00;12.00;;;;;26.92;51.07;99228.50;5049040;28;45579;-65
2022/06/02 10:49:11;;;;;;;;;15.75;13.75;;;;;26.90;50.90;99215.13;5052930;28;45373;-65
2022/06/02 10:51:55;;;;;;;;;10.60;10.60;;;;;26.94;51.40;99205.72;5071213;28;46763;-65
2022/06/02 10:55:08;;;;;;;;;12.60;12.60;;;;;26.98;50.90;99207.06;5076714;27;45349;-64
2022/06/02 10:57:58;;;;;;;;;12.75;11.75;;;;;27.02;50.41;99213.84;5053308;28;45424;-65
2022/06/02 11:01:01;;;;;;;;;12.50;11.00;;;;;27.11;49.44;99212.03;5073521;28;45401;-65
2022/06/02 11:04:03;;;;;;;;;9.50;8.50;;;;;27.23;49.08;99208.00;5076837;27;45554;-64
2022/06/02 11:06:55;;;;;;;;;9.00;9.00;;;;;27.29;48.39;99204.63;5068060;27;45637;-65
2022/06/02 11:09:58;;;;;;;;;11.60;10.40;;;;;27.35;48.46;99205.81;5071491;27;45438;-65
2022/06/02 11:12:54;;;;;;;;;10.25;8.25;;;;;27.42;48.44;99199.56;5058583;27;45569;-65
2022/06/02 11:15:51;;;;;;;;;10.00;9.60;;;;;27.50;47.60;99203.28;5047480;28;47590;-64
2022/06/02 11:18:41;;;;;;;;;6.40;6.40;;;;;27.56;47.59;99189.09;5063609;28;45439;-65
2022/06/02 11:21:31;;;;;;;;;7.00;5.60;;;;;27.58;46.94;99184.41;5073895;28;45574;-65
2022/06/02 11:24:06;;;;;;;;;6.60;6.40;;;;;27.58;46.45;99185.25;5070253;28;45309;-64
2022/06/02 11:26:57;;;;;;;;;7.40;7.00;;;;;27.59;46.19;99178.81;5069033;28;45418;-64
2022/06/02 11:29:41;;;;;;;;;6.40;6.40;;;;;27.61;45.48;99179.50;5070592;28;45657;-66
2022/06/02 11:32:29;;;;;;;;;7.00;7.00;;;;;27.66;44.99;99177.09;5075950;27;45634;-65
2022/06/02 11:35:03;;;;;;;;;7.80;7.80;;;;;27.71;44.72;99165.78;5076634;28;45412;-65
2022/06/02 11:38:03;;;;;;;;;8.20;6.60;;;;;27.76;44.33;99149.84;5076361;28;45667;-65
2022/06/02 11:40:48;;;;;;;;;7.40;5.60;;;;;27.85;43.53;99150.69;5064962;28;45376;-65
2022/06/02 11:43:24;;;;;;;;;7.60;6.40;;;;;27.87;44.33;99152.22;5072653;28;45531;-65
2022/06/02 11:45:52;;;;;;;;;4.20;4.20;;;;;27.90;43.57;99145.59;5054218;28;45453;-65
2022/06/02 11:48:55;;;;;;;;;2.80;2.60;;;;;27.93;43.56;99135.28;5058537;28;47906;-65
2022/06/02 11:51:39;;;;;;;;;4.20;3.80;;;;;27.95;43.12;99129.69;5076898;28;45473;-65
2022/06/02 11:54:31;;;;;;;;;5.40;5.40;;;;;28.01;43.22;99124.41;5076250;28;45535;-65
2022/06/02 11:57:18;;;;;;;;;4.20;3.20;;;;;28.07;42.01;99133.72;5069984;28;45408;-65
2022/06/02 11:59:54;;;;;;;;;4.60;4.60;;;;;28.11;42.00;99132.38;5076390;28;46401;-65
2022/06/02 12:02:44;;;;;;;;;3.40;3.20;;;;;28.08;42.01;99130.84;5074146;28;45397;-66
2022/06/02 12:05:11;;;;;;;;;5.40;4.00;;;;;28.04;42.01;99136.78;5076096;28;45465;-65
2022/06/02 12:08:06;;;;;;;;;4.00;4.00;;;;;28.05;42.71;99143.88;5076941;28;45395;-66
2022/06/02 12:11:22;;;;;;;;;5.00;4.00;;;;;28.04;42.42;99155.75;5076700;28;45443;-65
2022/06/02 12:13:56;;;;;;;;;4.00;4.00;;;;;28.09;42.65;99148.81;4996030;28;45569;-65
2022/06/02 12:16:36;;;;;;;;;5.60;5.00;;;;;28.13;41.55;99133.88;5064259;28;45307;-65
2022/06/02 12:19:11;;;;;;;;;6.60;4.00;;;;;28.17;41.19;99126.22;5074833;28;45519;-65
2022/06/02 12:22:02;;;;;;;;;6.80;5.40;;;;;28.19;41.83;99118.81;5076122;28;46178;-65
2022/06/02 12:24:49;;;;;;;;;5.00;5.00;;;;;28.21;41.35;99108.63;5044785;28;45515;-65
2022/06/02 12:27:33;;;;;;;;;7.00;7.00;;;;;28.20;41.61;99114.22;5076461;28;45439;-65
2022/06/02 12:30:32;;;;;;;;;7.00;6.00;;;;;28.07;41.30;99110.16;5075567;28;45363;-65
2022/06/02 12:33:06;;;;;;;;;8.80;8.40;;;;;27.97;42.29;99101.41;5076265;28;46440;-65
2022/06/02 12:35:47;;;;;;;;;5.40;5.40;;;;;27.83;42.66;99091.22;5054997;28;45427;-66
2022/06/02 12:38:41;;;;;;;;;10.40;8.00;;;;;27.70;43.07;99101.75;5042133;28;45548;-66
2022/06/02 12:41:43;;;;;;;;;6.40;6.40;;;;;27.55;43.27;99107.00;5074226;28;45413;-66
2022/06/02 12:44:20;;;;;;;;;3.40;3.40;;;;;27.48;43.80;99105.16;5076321;28;46390;-66
2022/06/02 12:47:20;;;;;;;;;5.00;5.00;;;;;27.46;44.40;99102.59;5075983;28;45377;-66
2022/06/02 12:49:51;;;;;;;;;6.20;6.20;;;;;27.45;44.25;99101.75;5076368;28;45321;-67